Woodlands, New Zealand
Current Conditions -  °F | °C
As of 1:30 AM on Saturday 25 Oct 2014 (Local Time) from NZCH Reporting Station
Rain Showers Rain Showers  
Wind Chill: 40°   Ceiling: 6000
Heat Index: 43°   Visibility: 6mi
Dew Point: 37°   Wind: 5mph
Humidity: 81%   Direction: 290°WNW
Pressure: 30.21"   Gusts: NA
Location:  46.37°S, 168.55°E
Report Text: NZCH 241330Z AUTO 29004KT 9999 VCSH OVC060/// 06/03 Q1023 NOSIG
Loading
Personal Weather Stations






























Interactive Weather Map
Tropical Storm Tracking
New forecast layout! Learn more

10-Day Weather Forecast

Advertisements
Track Severe Weather on mobile